createdAt,value
2022-11-30T00:01:24.439Z,2.55
2022-11-30T00:03:56.887Z,2.55
2022-11-30T00:06:25.853Z,2.55
2022-11-30T00:08:58.026Z,2.54
2022-11-30T00:11:28.499Z,2.51
2022-11-30T00:13:56.736Z,2.51
2022-11-30T00:16:24.873Z,2.49
2022-11-30T00:18:53.482Z,2.50
2022-11-30T00:21:21.277Z,2.49
2022-11-30T00:23:49.488Z,2.51
2022-11-30T00:26:19.450Z,2.51
2022-11-30T00:28:47.900Z,2.51
2022-11-30T00:31:17.855Z,2.50
2022-11-30T00:33:46.141Z,2.47
2022-11-30T00:36:19.611Z,2.43
2022-11-30T00:38:49.191Z,2.42
2022-11-30T00:41:19.236Z,2.41
2022-11-30T00:43:47.696Z,2.39
2022-11-30T00:46:15.823Z,2.36
2022-11-30T00:48:44.008Z,2.34
2022-11-30T00:51:12.994Z,2.32
2022-11-30T00:53:41.984Z,2.30
2022-11-30T00:56:10.411Z,2.27
2022-11-30T00:58:38.261Z,2.26
2022-11-30T01:01:07.467Z,2.24
2022-11-30T01:03:36.706Z,2.23
2022-11-30T01:06:06.627Z,2.21
2022-11-30T01:08:35.135Z,2.18
2022-11-30T01:11:24.811Z,2.17
2022-11-30T01:13:53.594Z,2.17
2022-11-30T01:16:26.582Z,2.15
2022-11-30T01:18:54.854Z,2.13
2022-11-30T01:21:25.191Z,2.13
2022-11-30T01:23:54.270Z,2.14
2022-11-30T01:26:22.615Z,2.14
2022-11-30T01:28:52.309Z,2.15
2022-11-30T01:31:23.556Z,2.15
2022-11-30T01:33:53.559Z,2.15
2022-11-30T01:36:23.729Z,2.16
2022-11-30T01:38:55.613Z,2.17
2022-11-30T01:41:26.469Z,2.17
2022-11-30T01:44:06.050Z,2.18
2022-11-30T01:46:45.928Z,2.21
2022-11-30T01:49:23.330Z,2.22
2022-11-30T01:52:20.632Z,2.24
2022-11-30T01:55:06.028Z,2.24
2022-11-30T01:57:41.019Z,2.25
2022-11-30T02:00:12.733Z,2.26
2022-11-30T02:02:55.357Z,2.28
2022-11-30T02:05:24.698Z,2.29
2022-11-30T02:07:53.508Z,2.31
2022-11-30T02:10:31.636Z,2.32
2022-11-30T02:13:24.726Z,2.33
2022-11-30T02:16:06.365Z,2.32
2022-11-30T02:18:45.655Z,2.31
2022-11-30T02:21:26.100Z,2.32
2022-11-30T02:24:09.246Z,2.33
2022-11-30T02:27:03.617Z,2.34
2022-11-30T02:29:38.049Z,2.38
2022-11-30T02:32:35.507Z,2.40
2022-11-30T02:35:05.840Z,2.45
2022-11-30T02:37:35.406Z,2.49
2022-11-30T02:40:09.329Z,2.54
2022-11-30T02:42:37.206Z,2.57
2022-11-30T02:45:08.024Z,2.60
2022-11-30T02:47:49.174Z,2.62
2022-11-30T02:50:44.296Z,2.61
2022-11-30T02:53:13.343Z,2.60
2022-11-30T02:55:41.264Z,2.61
2022-11-30T02:58:09.157Z,2.61
2022-11-30T03:00:37.004Z,2.61
2022-11-30T03:03:04.912Z,2.62
2022-11-30T03:05:32.855Z,2.62
2022-11-30T03:08:00.718Z,2.62
2022-11-30T03:10:28.613Z,2.62
2022-11-30T03:13:00.438Z,2.63
2022-11-30T03:15:28.396Z,2.62
2022-11-30T03:17:56.280Z,2.60
2022-11-30T03:20:24.166Z,2.58
2022-11-30T03:22:52.032Z,2.57
2022-11-30T03:25:19.870Z,2.55
2022-11-30T03:27:47.734Z,2.53
2022-11-30T03:30:15.713Z,2.51
2022-11-30T03:32:43.640Z,2.50
2022-11-30T03:35:11.561Z,2.48
2022-11-30T03:37:39.412Z,2.46
2022-11-30T03:40:08.170Z,2.44
2022-11-30T03:42:36.002Z,2.43
2022-11-30T03:45:04.593Z,2.39
2022-11-30T03:47:32.470Z,2.36
2022-11-30T03:50:01.330Z,2.33
2022-11-30T03:52:29.270Z,2.30
2022-11-30T03:54:57.119Z,2.26
2022-11-30T03:57:24.994Z,2.23
2022-11-30T03:59:52.841Z,2.19
2022-11-30T04:02:20.774Z,2.17
2022-11-30T04:04:49.085Z,2.12
2022-11-30T04:07:17.383Z,2.11
2022-11-30T04:09:45.360Z,2.10
2022-11-30T04:12:13.191Z,2.11
2022-11-30T04:14:41.139Z,2.08
2022-11-30T04:17:09.012Z,2.03
2022-11-30T04:19:36.822Z,1.98
2022-11-30T04:22:04.666Z,1.96
2022-11-30T04:24:32.489Z,1.93
2022-11-30T04:27:00.355Z,1.89
2022-11-30T04:29:28.234Z,1.86
2022-11-30T04:31:56.118Z,1.83
2022-11-30T04:34:24.006Z,1.80
2022-11-30T04:36:54.879Z,1.81
2022-11-30T04:39:26.651Z,1.81
2022-11-30T04:41:54.579Z,1.77
2022-11-30T04:44:22.438Z,1.73
2022-11-30T04:46:50.439Z,1.69
2022-11-30T04:49:18.308Z,1.66
2022-11-30T04:51:46.246Z,1.62
2022-11-30T04:54:14.108Z,1.56
2022-11-30T04:56:41.954Z,1.51
2022-11-30T04:59:09.863Z,1.47
2022-11-30T05:01:37.780Z,1.49
2022-11-30T05:04:05.683Z,1.51
2022-11-30T05:06:33.673Z,1.53
2022-11-30T05:09:01.496Z,1.54
2022-11-30T05:11:29.312Z,1.55
2022-11-30T05:13:57.201Z,1.51
2022-11-30T05:16:25.051Z,1.48
2022-11-30T05:18:53.064Z,1.47
2022-11-30T05:21:20.905Z,1.44
2022-11-30T05:23:48.863Z,1.39
2022-11-30T05:26:16.741Z,1.35
2022-11-30T05:28:44.623Z,1.32
2022-11-30T05:31:12.524Z,1.30
2022-11-30T05:33:40.484Z,1.29
2022-11-30T05:36:10.844Z,1.30
2022-11-30T05:38:39.054Z,1.32
2022-11-30T05:41:06.967Z,1.31
2022-11-30T05:43:34.871Z,1.31
2022-11-30T05:46:04.412Z,1.34
2022-11-30T05:48:32.592Z,1.35
2022-11-30T05:51:18.009Z,1.37
2022-11-30T05:53:46.735Z,1.39
2022-11-30T05:56:20.876Z,1.38
2022-11-30T05:58:49.157Z,1.39
2022-11-30T06:01:19.103Z,1.43
2022-11-30T06:03:47.010Z,1.49
2022-11-30T06:06:15.102Z,1.54
2022-11-30T06:08:44.849Z,1.58
2022-11-30T06:11:13.537Z,1.61
2022-11-30T06:13:42.047Z,1.65
2022-11-30T06:16:10.198Z,1.69
2022-11-30T06:18:38.662Z,1.70
2022-11-30T06:21:10.990Z,1.72
2022-11-30T06:23:38.818Z,1.72
2022-11-30T06:26:10.221Z,1.73
2022-11-30T06:28:40.588Z,1.75
2022-11-30T06:31:11.460Z,1.76
2022-11-30T06:33:39.347Z,1.78
2022-11-30T06:36:07.697Z,1.80
2022-11-30T06:38:35.499Z,1.82
2022-11-30T06:41:09.316Z,1.85
2022-11-30T06:43:39.039Z,1.89
2022-11-30T06:46:07.878Z,2.21
2022-11-30T06:48:36.412Z,2.23
2022-11-30T06:51:11.251Z,2.10
2022-11-30T06:53:39.106Z,2.09
2022-11-30T06:56:10.721Z,2.10
2022-11-30T06:58:39.900Z,2.08
2022-11-30T07:01:10.399Z,2.03
2022-11-30T07:03:38.974Z,2.03
2022-11-30T07:06:09.187Z,2.07
2022-11-30T07:08:37.803Z,2.17
2022-11-30T07:11:07.710Z,2.22
2022-11-30T07:13:36.407Z,2.25
2022-11-30T07:16:06.733Z,2.25
2022-11-30T07:18:35.366Z,2.25
2022-11-30T07:21:05.311Z,2.27
2022-11-30T07:23:56.349Z,2.25
2022-11-30T07:26:25.884Z,2.25
2022-11-30T07:28:55.444Z,2.27
2022-11-30T07:31:27.960Z,2.29
2022-11-30T07:33:57.311Z,2.31
2022-11-30T07:36:27.007Z,2.33
2022-11-30T07:38:54.870Z,2.36
2022-11-30T07:41:22.683Z,2.37
2022-11-30T07:43:50.529Z,2.38
2022-11-30T07:46:19.051Z,2.40
2022-11-30T07:48:47.547Z,2.39
2022-11-30T07:51:21.051Z,2.39
2022-11-30T07:53:50.069Z,2.40
2022-11-30T07:56:20.262Z,2.39
2022-11-30T07:58:50.008Z,2.37
2022-11-30T08:01:21.851Z,2.39
2022-11-30T08:03:51.284Z,2.41
2022-11-30T08:06:24.243Z,2.40
2022-11-30T08:08:53.972Z,2.39
2022-11-30T08:11:24.778Z,2.34
2022-11-30T08:13:53.630Z,2.32
2022-11-30T08:16:24.416Z,2.29
2022-11-30T08:18:53.228Z,2.27
2022-11-30T08:21:21.681Z,2.24
2022-11-30T08:23:53.181Z,2.20
2022-11-30T08:26:23.549Z,2.19
2022-11-30T08:28:52.712Z,2.17
2022-11-30T08:31:29.415Z,2.12
2022-11-30T08:34:00.481Z,2.10
2022-11-30T08:36:29.670Z,2.11
2022-11-30T08:38:59.595Z,2.16
2022-11-30T08:41:27.565Z,2.22
2022-11-30T08:43:55.713Z,2.28
2022-11-30T08:49:22.067Z,2.33
2022-11-30T08:54:45.000Z,2.42
2022-11-30T08:57:17.560Z,2.51
2022-11-30T08:59:46.533Z,2.59
2022-11-30T09:02:19.685Z,2.65
2022-11-30T09:04:49.396Z,2.66
2022-11-30T09:07:17.976Z,2.61
2022-11-30T09:09:46.063Z,2.59
2022-11-30T09:12:13.969Z,2.58
2022-11-30T09:14:42.780Z,2.58
2022-11-30T09:17:10.761Z,2.63
2022-11-30T09:19:38.627Z,2.72
2022-11-30T09:22:06.515Z,2.75
2022-11-30T09:24:34.476Z,2.82
2022-11-30T09:27:02.282Z,2.89
2022-11-30T09:29:30.135Z,2.92
2022-11-30T09:31:58.037Z,2.98
2022-11-30T09:34:25.933Z,3.04
2022-11-30T09:36:53.923Z,3.11
2022-11-30T09:39:21.783Z,3.16
2022-11-30T09:42:13.964Z,3.22
2022-11-30T09:45:03.073Z,3.31
2022-11-30T09:48:08.604Z,3.36
2022-11-30T09:50:42.864Z,3.43
2022-11-30T09:53:33.650Z,3.47
2022-11-30T09:56:02.995Z,3.50
2022-11-30T09:58:44.924Z,3.51
2022-11-30T10:01:22.670Z,3.47
2022-11-30T10:03:50.806Z,3.42
2022-11-30T10:06:30.713Z,3.38
2022-11-30T10:09:17.410Z,3.26
2022-11-30T10:11:45.641Z,3.19
2022-11-30T10:14:48.728Z,3.15
2022-11-30T10:17:54.594Z,3.17
2022-11-30T10:20:34.240Z,3.17
2022-11-30T10:23:21.134Z,3.15
2022-11-30T10:26:30.109Z,3.19
2022-11-30T10:29:07.018Z,3.24
2022-11-30T10:31:37.690Z,3.31
2022-11-30T10:34:28.821Z,3.39
2022-11-30T10:37:05.820Z,3.48
2022-11-30T10:39:58.710Z,3.51
2022-11-30T10:42:40.438Z,3.50
2022-11-30T10:45:19.823Z,3.50
2022-11-30T10:48:03.585Z,3.46
2022-11-30T10:50:31.825Z,3.44
2022-11-30T10:53:00.816Z,3.45
2022-11-30T10:55:34.792Z,3.43
2022-11-30T10:58:10.728Z,3.47
2022-11-30T11:00:38.677Z,3.51
2022-11-30T11:03:24.558Z,3.55
2022-11-30T11:06:22.944Z,3.57
2022-11-30T11:08:51.366Z,3.54
2022-11-30T11:11:45.604Z,3.53
2022-11-30T11:14:24.725Z,3.48
2022-11-30T11:16:59.149Z,3.38
2022-11-30T11:19:34.682Z,3.30
2022-11-30T11:22:06.305Z,3.20
2022-11-30T11:24:35.499Z,3.11
2022-11-30T11:27:03.672Z,3.04
2022-11-30T11:29:34.924Z,3.00
2022-11-30T11:32:18.742Z,3.02
2022-11-30T11:34:51.006Z,3.08
2022-11-30T11:37:24.036Z,3.09
2022-11-30T11:40:05.706Z,3.03
2022-11-30T11:42:43.264Z,3.00
2022-11-30T11:45:22.721Z,2.99
2022-11-30T11:48:02.058Z,2.98
2022-11-30T11:53:47.329Z,2.96
2022-11-30T11:56:25.424Z,2.98
2022-11-30T11:59:06.032Z,3.01
2022-11-30T12:01:48.008Z,3.02
2022-11-30T12:04:36.176Z,3.03
2022-11-30T12:07:16.722Z,2.99
2022-11-30T12:10:49.842Z,2.89
2022-11-30T12:13:16.549Z,2.88
2022-11-30T12:16:10.977Z,2.83
2022-11-30T12:19:15.511Z,2.76
2022-11-30T12:22:14.710Z,2.81
2022-11-30T12:24:52.617Z,2.85
2022-11-30T12:27:25.201Z,2.92
2022-11-30T12:29:56.010Z,2.97
2022-11-30T12:32:50.967Z,2.97
2022-11-30T12:35:27.086Z,2.92
2022-11-30T12:38:13.376Z,2.90
2022-11-30T12:40:59.257Z,2.88
2022-11-30T12:43:48.778Z,2.83
2022-11-30T12:46:55.093Z,2.77
2022-11-30T12:49:33.499Z,2.74
2022-11-30T12:52:14.068Z,2.77
2022-11-30T12:54:57.946Z,2.82
2022-11-30T12:57:28.447Z,2.80
2022-11-30T13:00:19.576Z,2.74
2022-11-30T13:03:08.895Z,2.76
2022-11-30T13:05:42.879Z,2.76
2022-11-30T13:08:48.775Z,2.76
2022-11-30T13:11:21.734Z,2.75
2022-11-30T13:13:54.257Z,2.74
2022-11-30T13:16:24.724Z,2.74
2022-11-30T13:18:59.084Z,2.73
2022-11-30T13:21:34.975Z,2.69
2022-11-30T13:24:13.266Z,2.67
2022-11-30T13:27:08.745Z,2.66
2022-11-30T13:29:45.696Z,2.66
2022-11-30T13:32:41.075Z,2.69
2022-11-30T13:35:29.261Z,2.73
2022-11-30T13:41:08.959Z,2.70
2022-11-30T13:43:47.864Z,2.68
2022-11-30T13:46:20.895Z,2.67
2022-11-30T13:48:50.154Z,2.70
2022-11-30T13:51:40.060Z,2.73
2022-11-30T13:54:46.090Z,2.76
2022-11-30T13:57:24.789Z,2.77
2022-11-30T13:59:59.589Z,2.77
2022-11-30T14:02:33.666Z,2.76
2022-11-30T14:05:23.352Z,2.74
2022-11-30T14:08:00.642Z,2.74
2022-11-30T14:10:39.980Z,2.72
2022-11-30T14:13:10.770Z,2.74
2022-11-30T14:15:38.675Z,2.73
2022-11-30T14:18:09.384Z,2.73
2022-11-30T14:20:40.807Z,2.74
2022-11-30T14:23:14.453Z,2.75
2022-11-30T14:25:48.297Z,2.73
2022-11-30T14:28:20.339Z,2.72
2022-11-30T14:30:49.117Z,2.73
2022-11-30T14:33:50.267Z,2.72
2022-11-30T14:36:19.352Z,2.70
2022-11-30T14:38:47.891Z,2.64
2022-11-30T14:41:29.866Z,2.60
2022-11-30T14:44:14.330Z,2.57
2022-11-30T14:46:42.234Z,2.58
2022-11-30T14:49:17.301Z,2.56
2022-11-30T14:51:52.567Z,2.52
2022-11-30T14:54:30.717Z,2.51
2022-11-30T14:57:07.544Z,2.47
2022-11-30T14:59:46.410Z,2.43
2022-11-30T15:02:30.462Z,2.44
2022-11-30T15:04:59.756Z,2.49
2022-11-30T15:07:29.799Z,2.49
2022-11-30T15:10:05.674Z,2.47
2022-11-30T15:12:35.275Z,2.47
2022-11-30T15:15:03.199Z,2.45
2022-11-30T15:17:31.717Z,2.46
2022-11-30T15:19:59.703Z,2.49
2022-11-30T15:22:35.044Z,2.52
2022-11-30T15:25:03.007Z,2.53
2022-11-30T15:27:31.013Z,2.57
2022-11-30T15:30:01.010Z,2.60
2022-11-30T15:32:29.339Z,2.61
2022-11-30T15:35:00.917Z,2.62
2022-11-30T15:37:35.404Z,2.61
2022-11-30T15:40:06.794Z,2.59
2022-11-30T15:42:40.335Z,2.55
2022-11-30T15:45:28.532Z,2.45
2022-11-30T15:47:58.751Z,2.34
2022-11-30T15:50:26.495Z,2.23
2022-11-30T15:52:57.043Z,2.18
2022-11-30T15:55:45.323Z,2.18
2022-11-30T15:58:46.519Z,2.17
2022-11-30T16:01:25.042Z,2.16
2022-11-30T16:03:56.080Z,2.16
2022-11-30T16:06:33.851Z,2.15
2022-11-30T16:09:17.334Z,2.13
2022-11-30T16:11:46.579Z,2.11
2022-11-30T16:14:16.836Z,2.12
2022-11-30T16:16:46.081Z,2.14
2022-11-30T16:19:13.981Z,2.14
2022-11-30T16:21:42.334Z,2.16
2022-11-30T16:24:14.599Z,2.20
2022-11-30T16:26:51.716Z,2.22
2022-11-30T16:29:20.586Z,2.24
2022-11-30T16:31:49.271Z,2.24
2022-11-30T16:34:17.247Z,2.28
2022-11-30T16:36:45.106Z,2.29
2022-11-30T16:39:13.378Z,2.31
2022-11-30T16:41:41.264Z,2.31
2022-11-30T16:44:13.859Z,2.30
2022-11-30T16:46:42.080Z,2.25
2022-11-30T16:49:09.996Z,2.17
2022-11-30T16:51:38.051Z,2.09
2022-11-30T16:54:06.025Z,2.04
2022-11-30T16:56:33.910Z,2.01
2022-11-30T16:59:01.796Z,2.00
2022-11-30T17:01:36.243Z,2.01
2022-11-30T17:04:12.258Z,2.04
2022-11-30T17:06:40.188Z,2.07
2022-11-30T17:09:15.854Z,2.11
2022-11-30T17:11:46.818Z,2.14
2022-11-30T17:14:14.729Z,2.14
2022-11-30T17:16:42.892Z,2.14
2022-11-30T17:19:11.215Z,2.17
2022-11-30T17:21:39.884Z,2.16
2022-11-30T17:24:07.975Z,2.14
2022-11-30T17:26:35.972Z,2.14
2022-11-30T17:29:04.433Z,2.16
2022-11-30T17:31:32.601Z,2.20
2022-11-30T17:34:00.587Z,2.24
2022-11-30T17:36:29.441Z,2.26
2022-11-30T17:38:57.693Z,2.23
2022-11-30T17:41:25.581Z,2.22
2022-11-30T17:43:53.410Z,2.16
2022-11-30T17:46:22.482Z,2.08
2022-11-30T17:48:50.750Z,2.03
2022-11-30T17:51:18.717Z,2.05
2022-11-30T17:53:46.614Z,2.08
2022-11-30T17:56:16.501Z,2.05
2022-11-30T17:58:45.363Z,1.94
2022-11-30T18:01:19.140Z,1.86
2022-11-30T18:03:47.654Z,1.82
2022-11-30T18:06:16.218Z,1.80
2022-11-30T18:08:45.088Z,1.78
2022-11-30T18:11:14.172Z,1.80
2022-11-30T18:13:42.203Z,1.84
2022-11-30T18:16:13.475Z,1.89
2022-11-30T18:18:47.377Z,1.93
2022-11-30T18:21:20.039Z,1.94
2022-11-30T18:23:49.218Z,1.93
2022-11-30T18:26:20.277Z,1.94
2022-11-30T18:28:58.370Z,1.97
2022-11-30T18:31:27.968Z,1.99
2022-11-30T18:33:58.183Z,2.02
2022-11-30T18:36:26.956Z,2.01
2022-11-30T18:38:55.122Z,2.00
2022-11-30T18:41:26.167Z,1.99
2022-11-30T18:43:54.744Z,1.98
2022-11-30T18:46:22.765Z,1.98
2022-11-30T18:48:51.866Z,1.99
2022-11-30T18:51:27.429Z,1.98
2022-11-30T18:54:00.894Z,1.98
2022-11-30T18:56:31.756Z,1.99
2022-11-30T18:59:02.335Z,1.99
2022-11-30T19:01:31.307Z,1.99
2022-11-30T19:04:02.123Z,1.98
2022-11-30T19:06:32.573Z,1.97
2022-11-30T19:09:08.502Z,1.94
2022-11-30T19:11:37.844Z,1.91
2022-11-30T19:14:06.355Z,1.91
2022-11-30T19:16:35.074Z,1.89
2022-11-30T19:19:06.308Z,1.89
2022-11-30T19:21:34.754Z,1.92
2022-11-30T19:24:03.056Z,1.94
2022-11-30T19:26:30.965Z,1.95
2022-11-30T19:28:59.184Z,1.97
2022-11-30T19:31:27.649Z,1.99
2022-11-30T19:33:56.540Z,2.01
2022-11-30T19:36:27.511Z,2.05
2022-11-30T19:38:58.229Z,2.08
2022-11-30T19:41:27.363Z,2.10
2022-11-30T19:44:02.748Z,2.09
2022-11-30T19:46:33.317Z,2.07
2022-11-30T19:49:01.824Z,2.05
2022-11-30T19:51:31.348Z,2.05
2022-11-30T19:53:59.389Z,2.04
2022-11-30T19:56:29.610Z,1.98
2022-11-30T19:59:04.023Z,1.92
2022-11-30T20:01:34.257Z,1.86
2022-11-30T20:04:03.789Z,1.84
2022-11-30T20:06:37.108Z,1.85
2022-11-30T20:09:07.245Z,1.90
2022-11-30T20:11:35.594Z,1.92
2022-11-30T20:14:03.799Z,1.94
2022-11-30T20:16:31.989Z,1.97
2022-11-30T20:19:01.863Z,2.00
2022-11-30T20:21:33.310Z,2.00
2022-11-30T20:24:05.468Z,2.02
2022-11-30T20:26:36.787Z,2.05
2022-11-30T20:29:07.145Z,2.08
2022-11-30T20:31:36.875Z,2.10
2022-11-30T20:34:05.397Z,2.10
2022-11-30T20:36:33.784Z,2.08
2022-11-30T20:39:03.385Z,2.07
2022-11-30T20:41:31.247Z,2.09
2022-11-30T20:43:59.533Z,2.10
2022-11-30T20:46:35.690Z,2.15
2022-11-30T20:49:11.777Z,2.17
2022-11-30T20:51:39.647Z,2.17
2022-11-30T20:54:07.838Z,2.16
2022-11-30T20:56:37.847Z,2.16
2022-11-30T20:59:09.017Z,2.15
2022-11-30T21:01:36.901Z,2.15
2022-11-30T21:04:04.859Z,2.16
2022-11-30T21:06:32.943Z,2.16
2022-11-30T21:09:01.214Z,2.14
2022-11-30T21:11:30.186Z,2.12
2022-11-30T21:13:58.188Z,2.11
2022-11-30T21:16:29.485Z,2.07
2022-11-30T21:18:59.544Z,2.01
2022-11-30T21:21:33.742Z,1.96
2022-11-30T21:24:05.332Z,1.93
2022-11-30T21:26:36.570Z,1.96
2022-11-30T21:29:11.444Z,1.98
2022-11-30T21:31:39.569Z,1.97
2022-11-30T21:34:07.793Z,1.98
2022-11-30T21:36:35.932Z,2.01
2022-11-30T21:39:07.088Z,2.06
2022-11-30T21:41:37.350Z,2.08
2022-11-30T21:44:07.222Z,2.09
2022-11-30T21:46:35.302Z,2.02
2022-11-30T21:49:03.572Z,2.01
2022-11-30T21:51:32.727Z,2.03
2022-11-30T21:54:04.173Z,2.03
2022-11-30T21:56:37.333Z,2.03
2022-11-30T21:59:07.210Z,1.97
2022-11-30T22:01:38.284Z,1.93
2022-11-30T22:04:08.611Z,1.94
2022-11-30T22:06:38.397Z,1.97
2022-11-30T22:09:12.950Z,2.00
2022-11-30T22:11:42.571Z,2.00
2022-11-30T22:14:12.829Z,2.01
2022-11-30T22:16:40.741Z,2.01
2022-11-30T22:19:08.743Z,1.94
2022-11-30T22:21:36.798Z,1.93
2022-11-30T22:24:07.500Z,1.95
2022-11-30T22:26:38.197Z,1.97
2022-11-30T22:29:08.556Z,1.99
2022-11-30T22:31:40.294Z,2.00
2022-11-30T22:34:08.591Z,2.00
2022-11-30T22:36:38.779Z,1.98
2022-11-30T22:39:13.081Z,1.98
2022-11-30T22:41:42.495Z,2.00
2022-11-30T22:44:13.157Z,1.99
2022-11-30T22:46:41.658Z,2.00
2022-11-30T22:49:20.227Z,1.99
2022-11-30T22:51:49.934Z,1.98
2022-11-30T22:54:18.749Z,1.97
2022-11-30T22:56:47.016Z,1.96
2022-11-30T22:59:15.931Z,1.96
2022-11-30T23:01:46.837Z,1.95
2022-11-30T23:04:17.197Z,1.96
2022-11-30T23:06:47.355Z,1.97
2022-11-30T23:09:18.606Z,2.02
2022-11-30T23:11:47.442Z,2.03
2022-11-30T23:14:16.572Z,1.99
2022-11-30T23:16:45.813Z,1.92
2022-11-30T23:19:14.468Z,1.93
2022-11-30T23:21:44.977Z,1.94
2022-11-30T23:24:15.932Z,1.93
2022-11-30T23:26:44.581Z,1.90
2022-11-30T23:29:14.747Z,1.89
2022-11-30T23:31:45.266Z,1.88
2022-11-30T23:34:16.964Z,1.87
2022-11-30T23:36:45.301Z,1.86
2022-11-30T23:39:16.094Z,1.89
2022-11-30T23:41:44.568Z,1.92
2022-11-30T23:44:12.693Z,1.93
2022-11-30T23:46:41.356Z,1.92
2022-11-30T23:49:09.552Z,1.90
2022-11-30T23:51:37.492Z,1.89
2022-11-30T23:54:05.514Z,1.90
2022-11-30T23:56:33.441Z,1.90
2022-11-30T23:59:01.295Z,1.92
